Barcelona Knutsen — EACW — position and weather

sailwx.info

Track history (hours):
 
Tides and Currents Weather Stations Pressure Air Temp Water Temp Dewpoint Dewpoint Depression Visibility Wind Speed Wind Dir Waves Ship Positions

Barcelona Knutsen

Last reported at 2016-Aug-20 18:20 UTC. Time now 2016-Aug-26 01:26 UTC.
Position N 21°17' E 114°37'.

Length 290 m; draft 9.4 m.

Type: Tanker. MMSI: 224436000.

Date/timePositionNaut miles runAvg speedWind from/ knotsBaromVisibWave heightAir tempDewpointWater temp
2016-Aug-20 18:20N 21°17' E 114°37'4616.1
2016-Aug-20 15:30N 22°03' E 114°31'14 1.2
2016-Aug-20 04:16N 22°09' E 114°18'811.5
2016-Aug-20 03:33N 22°07' E 114°26'29118.1
2016-Aug-19 11:29N 22°33' E 119°39'1718.0
2016-Aug-19 10:33N 22°47' E 119°49'10918.1
2016-Aug-19 04:30N 24°28' E 119°03'1415.2
2016-Aug-19 03:33N 24°42' E 118°59'1515.0
2016-Aug-19 02:33N 24°57' E 119°04'8 8.3
2016-Aug-19 01:33N 25°05' E 119°01'8 6.2
2016-Aug-19 00:17N 25°13' E 118°60'0 0.0
2016-Aug-18 23:29N 25°13' E 118°60'0 0.0
2016-Aug-18 22:23N 25°13' E 118°60'0 0.0
2016-Aug-18 21:23N 25°13' E 118°60'0 0.0
2016-Aug-18 12:17N 25°13' E 118°60'0 0.0
2016-Aug-18 08:29N 25°13' E 118°60'0 0.0
2016-Aug-18 06:11N 25°13' E 118°60'0 0.0
2016-Aug-18 05:29N 25°13' E 118°60'0 0.0
2016-Aug-18 04:23N 25°13' E 118°60'0 0.0
2016-Aug-18 02:29N 25°13' E 118°60'0 0.0
2016-Aug-18 01:29N 25°13' E 118°60'0 0.0
2016-Aug-18 00:29N 25°13' E 118°60'0 0.0
2016-Aug-17 23:29N 25°13' E 118°60'0 0.0
2016-Aug-17 22:29N 25°13' E 118°60'0 0.0
2016-Aug-17 21:17N 25°13' E 118°60'0 0.0
2016-Aug-17 20:29N 25°13' E 118°60'0 0.0
2016-Aug-17 19:29N 25°13' E 118°60'0 0.0
2016-Aug-17 18:23N 25°13' E 118°60'0 0.0
2016-Aug-17 17:29N 25°13' E 118°60'0 0.0
2016-Aug-17 16:29N 25°13' E 118°60'0 0.0
2016-Aug-17 15:29N 25°13' E 118°60'0 0.0
2016-Aug-17 14:23N 25°13' E 118°60'0 0.0
2016-Aug-17 13:05N 25°13' E 118°60'0 0.0
2016-Aug-17 11:29N 25°13' E 118°60'0 0.1
2016-Aug-17 10:33N 25°12' E 118°60'5 5.1
2016-Aug-17 09:31N 25°07' E 119°00'9 9.5
2016-Aug-17 08:33N 24°59' E 119°05'6 5.6
2016-Aug-17 07:33N 24°54' E 119°02'7 6.6
2016-Aug-17 06:33N 24°48' E 119°04'10 9.7
2016-Aug-17 05:33N 24°44' E 119°14'  
Track history (hours):
 
Tides and Currents Weather Stations Pressure Air Temp Water Temp Dewpoint Dewpoint Depression Visibility Wind Speed Wind Dir Waves Ship Positions

Barcelona Knutsen

Last reported at 2016-Aug-20 18:20 UTC. Time now 2016-Aug-26 01:26 UTC.
Position N 21°17' E 114°37'.

Length 290 m; draft 9.4 m.

Type: Tanker. MMSI: 224436000.

Date/timePositionNaut miles runAvg speedWind from/ knotsBaromVisibWave heightAir tempDewpointWater temp
2016-Aug-20 18:20N 21°17' E 114°37'4616.1
2016-Aug-20 15:30N 22°03' E 114°31'14 1.2
2016-Aug-20 04:16N 22°09' E 114°18'811.5
2016-Aug-20 03:33N 22°07' E 114°26'29118.1
2016-Aug-19 11:29N 22°33' E 119°39'1718.0
2016-Aug-19 10:33N 22°47' E 119°49'10918.1
2016-Aug-19 04:30N 24°28' E 119°03'1415.2
2016-Aug-19 03:33N 24°42' E 118°59'1515.0
2016-Aug-19 02:33N 24°57' E 119°04'8 8.3
2016-Aug-19 01:33N 25°05' E 119°01'8 6.2
2016-Aug-19 00:17N 25°13' E 118°60'0 0.0
2016-Aug-18 23:29N 25°13' E 118°60'0 0.0
2016-Aug-18 22:23N 25°13' E 118°60'0 0.0
2016-Aug-18 21:23N 25°13' E 118°60'0 0.0
2016-Aug-18 12:17N 25°13' E 118°60'0 0.0
2016-Aug-18 08:29N 25°13' E 118°60'0 0.0
2016-Aug-18 06:11N 25°13' E 118°60'0 0.0
2016-Aug-18 05:29N 25°13' E 118°60'0 0.0
2016-Aug-18 04:23N 25°13' E 118°60'0 0.0
2016-Aug-18 02:29N 25°13' E 118°60'0 0.0
2016-Aug-18 01:29N 25°13' E 118°60'0 0.0
2016-Aug-18 00:29N 25°13' E 118°60'0 0.0
2016-Aug-17 23:29N 25°13' E 118°60'0 0.0
2016-Aug-17 22:29N 25°13' E 118°60'0 0.0
2016-Aug-17 21:17N 25°13' E 118°60'0 0.0
2016-Aug-17 20:29N 25°13' E 118°60'0 0.0
2016-Aug-17 19:29N 25°13' E 118°60'0 0.0
2016-Aug-17 18:23N 25°13' E 118°60'0 0.0
2016-Aug-17 17:29N 25°13' E 118°60'0 0.0
2016-Aug-17 16:29N 25°13' E 118°60'0 0.0
2016-Aug-17 15:29N 25°13' E 118°60'0 0.0
2016-Aug-17 14:23N 25°13' E 118°60'0 0.0
2016-Aug-17 13:05N 25°13' E 118°60'0 0.0
2016-Aug-17 11:29N 25°13' E 118°60'0 0.1
2016-Aug-17 10:33N 25°12' E 118°60'5 5.1
2016-Aug-17 09:31N 25°07' E 119°00'9 9.5
2016-Aug-17 08:33N 24°59' E 119°05'6 5.6
2016-Aug-17 07:33N 24°54' E 119°02'7 6.6
2016-Aug-17 06:33N 24°48' E 119°04'10 9.7
2016-Aug-17 05:33N 24°44' E 119°14'  

Dump ship's entire track history